createdAt,value
2023-04-11T02:26:29.419Z,11.00
2023-04-11T02:28:56.269Z,10.90
2023-04-11T02:31:23.162Z,10.90
2023-04-11T02:49:14.326Z,10.90
2023-04-11T02:51:41.310Z,10.80
2023-04-11T02:54:08.295Z,10.80
2023-04-11T04:28:11.434Z,10.20
2023-04-11T04:30:38.173Z,10.20
2023-04-11T04:33:04.841Z,10.20
2023-04-11T04:35:31.500Z,10.20
2023-04-11T04:38:06.101Z,10.20
2023-04-11T05:39:45.369Z,9.80
2023-04-11T05:42:12.053Z,9.80
2023-04-11T05:44:40.067Z,9.80
2023-04-11T05:47:06.727Z,9.80
2023-04-11T05:49:33.317Z,9.90
2023-04-11T05:59:32.888Z,10.00
2023-04-11T06:01:59.564Z,10.00
2023-04-11T06:04:26.557Z,10.00
2023-04-11T06:06:53.576Z,10.00
2023-04-11T06:17:02.408Z,10.10
2023-04-11T06:19:28.998Z,10.10
2023-04-11T06:21:55.661Z,10.10
2023-04-11T06:24:36.041Z,10.20
2023-04-11T06:27:03.470Z,10.20
2023-04-11T06:29:30.707Z,10.20
2023-04-11T06:31:58.692Z,10.30
2023-04-11T06:34:25.547Z,10.40
2023-04-11T06:52:16.990Z,10.60
2023-04-11T06:54:43.916Z,10.60
2023-04-11T06:57:10.574Z,10.70
2023-04-11T06:59:37.544Z,10.70
2023-04-11T07:02:04.329Z,10.80
2023-04-11T07:16:05.033Z,11.00
2023-04-11T07:18:31.800Z,11.10
2023-04-11T07:20:58.426Z,11.10
2023-04-11T07:23:25.101Z,11.20
2023-04-11T07:25:51.792Z,11.20
2023-04-11T07:28:18.423Z,11.20
2023-04-11T07:30:45.027Z,11.30
2023-04-11T07:33:11.681Z,11.40
2023-04-11T07:50:53.315Z,11.80
2023-04-11T07:53:21.471Z,11.90
2023-04-11T07:55:48.333Z,12.10
2023-04-11T07:58:15.254Z,12.20
2023-04-11T08:00:41.888Z,12.20
2023-04-11T08:03:10.271Z,12.40
2023-04-11T08:20:51.221Z,13.30
2023-04-11T08:23:19.618Z,13.50
2023-04-11T08:25:46.712Z,13.70
2023-04-11T08:28:13.410Z,13.80
2023-04-11T08:30:40.035Z,13.90
2023-04-11T08:33:07.231Z,14.10
2023-04-11T08:54:51.680Z,15.40
2023-04-11T08:57:31.314Z,15.60
2023-04-11T09:00:19.054Z,15.70
2023-04-11T09:03:06.772Z,15.90
2023-04-11T09:24:39.197Z,16.70
2023-04-11T09:27:15.640Z,16.90
2023-04-11T09:29:48.905Z,17.10
2023-04-11T09:32:36.071Z,17.20
2023-04-11T09:42:48.551Z,17.60
2023-04-11T09:45:19.993Z,17.70
2023-04-11T09:47:47.764Z,17.80
2023-04-11T09:50:15.572Z,17.90
2023-04-11T10:08:14.432Z,18.70
2023-04-11T10:10:43.994Z,18.80
2023-04-11T10:13:35.386Z,18.90
2023-04-11T10:16:08.369Z,19.10
2023-04-11T10:18:56.095Z,19.30
2023-04-11T10:21:34.781Z,19.40
2023-04-11T10:24:18.277Z,19.70
2023-04-11T10:27:03.668Z,19.80
2023-04-11T10:29:33.542Z,20.00
2023-04-11T10:32:16.509Z,20.20
2023-04-11T10:34:52.347Z,20.40
2023-04-11T10:49:03.087Z,21.20
2023-04-11T10:51:33.764Z,21.40
2023-04-11T10:54:01.947Z,21.50
2023-04-11T11:11:42.928Z,22.10
2023-04-11T11:14:09.749Z,22.20
2023-04-11T11:16:36.547Z,22.20
2023-04-11T11:19:06.318Z,22.20
2023-04-11T11:57:51.680Z,22.40
2023-04-11T12:54:14.843Z,24.90
2023-04-11T12:56:41.473Z,25.00
2023-04-11T12:59:08.276Z,25.00
2023-04-11T13:01:34.948Z,25.10
2023-04-11T13:04:01.805Z,25.10
2023-04-11T13:06:29.667Z,25.20
2023-04-11T13:28:12.565Z,25.30
2023-04-11T13:30:39.244Z,25.30
2023-04-11T13:33:05.942Z,25.40
2023-04-11T13:35:32.632Z,25.40
2023-04-11T13:37:59.414Z,25.40
2023-04-11T13:40:26.026Z,25.50
2023-04-11T13:42:54.490Z,25.60
2023-04-11T15:14:29.371Z,24.90
2023-04-11T15:16:56.766Z,24.70
2023-04-11T15:19:23.528Z,24.60
2023-04-11T15:21:50.100Z,24.50
2023-04-11T15:24:17.014Z,24.40
2023-04-11T15:38:06.796Z,23.60
2023-04-11T15:40:33.451Z,23.40
2023-04-11T15:43:01.191Z,23.20
2023-04-11T15:45:28.102Z,23.10
2023-04-11T15:47:57.699Z,22.90
2023-04-11T16:01:48.033Z,22.00
2023-04-11T16:04:16.403Z,21.70
2023-04-11T16:06:44.088Z,21.60
2023-04-11T16:09:10.902Z,21.50
2023-04-11T16:19:28.165Z,20.90
2023-04-11T16:24:51.638Z,20.60
2023-04-11T17:09:41.364Z,18.70
2023-04-11T17:12:07.963Z,18.60
2023-04-11T17:14:36.672Z,18.50
2023-04-11T17:17:03.609Z,18.40
2023-04-11T17:51:49.080Z,17.30
2023-04-11T17:54:28.441Z,17.10
2023-04-11T17:56:56.196Z,17.10
2023-04-11T18:10:48.881Z,16.70
2023-04-11T18:13:15.465Z,16.60
2023-04-11T18:15:42.265Z,16.50
2023-04-11T18:42:58.660Z,15.80
2023-04-11T18:45:25.781Z,15.70
2023-04-11T18:47:53.006Z,15.60
2023-04-11T20:08:40.178Z,14.10
2023-04-11T20:11:06.956Z,14.00
2023-04-11T20:13:33.804Z,14.00
2023-04-11T20:16:01.145Z,14.00
2023-04-11T20:41:56.673Z,13.80
2023-04-11T20:44:23.902Z,13.70
2023-04-11T20:46:51.107Z,13.70
2023-04-11T20:49:18.221Z,13.70
2023-04-11T20:51:47.911Z,13.70
2023-04-11T20:54:14.610Z,13.70
2023-04-11T20:56:42.743Z,13.70
2023-04-11T20:59:09.581Z,13.70
2023-04-11T21:24:43.479Z,13.40
2023-04-11T21:27:10.326Z,13.30
2023-04-11T21:29:37.039Z,13.30
2023-04-11T21:32:04.380Z,13.30
2023-04-11T22:40:17.656Z,12.70
2023-04-11T22:42:46.884Z,12.60
2023-04-11T22:45:13.622Z,12.60
2023-04-11T22:47:45.488Z,12.60
2023-04-11T22:50:13.621Z,12.60
